createdAt,value
2019-05-28T00:00:35.804Z,16.10
2019-05-28T00:03:06.032Z,16.10
2019-05-28T00:05:36.180Z,16.10
2019-05-28T00:08:06.293Z,16.10
2019-05-28T00:10:36.291Z,16.10
2019-05-28T00:13:06.341Z,16.00
2019-05-28T00:15:36.571Z,16.10
2019-05-28T00:18:06.737Z,16.00
2019-05-28T00:20:36.676Z,16.00
2019-05-28T00:23:06.698Z,16.00
2019-05-28T00:25:36.630Z,16.00
2019-05-28T00:28:06.718Z,15.90
2019-05-28T00:30:37.267Z,15.90
2019-05-28T00:33:07.453Z,15.90
2019-05-28T00:35:37.590Z,15.90
2019-05-28T00:38:07.598Z,15.90
2019-05-28T00:40:38.101Z,16.00
2019-05-28T00:43:08.263Z,16.00
2019-05-28T00:45:38.261Z,16.00
2019-05-28T00:48:08.373Z,16.10
2019-05-28T00:50:38.323Z,16.00
2019-05-28T00:53:08.281Z,16.00
2019-05-28T00:55:39.200Z,15.90
2019-05-28T00:58:10.020Z,15.90
2019-05-28T01:00:48.670Z,15.90
2019-05-28T01:03:19.025Z,15.80
2019-05-28T01:05:49.062Z,15.80
2019-05-28T01:08:19.067Z,15.70
2019-05-28T01:10:49.225Z,15.70
2019-05-28T01:13:19.293Z,15.60
2019-05-28T01:15:49.523Z,15.60
2019-05-28T01:18:19.477Z,15.60
2019-05-28T01:20:49.511Z,15.60
2019-05-28T01:23:20.693Z,15.60
2019-05-28T01:25:50.833Z,15.60
2019-05-28T01:28:20.925Z,15.60
2019-05-28T01:30:57.700Z,15.70
2019-05-28T01:33:22.776Z,15.70
2019-05-28T01:35:52.790Z,15.70
2019-05-28T01:38:22.716Z,15.60
2019-05-28T01:40:52.727Z,15.60
2019-05-28T01:43:22.886Z,15.60
2019-05-28T01:45:52.815Z,15.70
2019-05-28T01:48:22.690Z,15.60
2019-05-28T01:50:52.691Z,15.50
2019-05-28T01:53:22.651Z,15.60
2019-05-28T01:55:52.757Z,15.60
2019-05-28T01:58:22.748Z,15.70
2019-05-28T02:00:52.829Z,15.70
2019-05-28T02:03:22.828Z,15.70
2019-05-28T02:05:52.904Z,15.60
2019-05-28T02:08:22.991Z,15.60
2019-05-28T02:10:54.040Z,15.50
2019-05-28T02:13:24.107Z,15.50
2019-05-28T02:15:54.190Z,15.40
2019-05-28T02:18:24.113Z,15.40
2019-05-28T02:20:54.276Z,15.30
2019-05-28T02:23:25.503Z,15.30
2019-05-28T02:25:55.512Z,15.40
2019-05-28T02:28:25.488Z,15.40
2019-05-28T02:30:55.513Z,15.40
2019-05-28T02:33:25.576Z,15.50
2019-05-28T02:35:55.524Z,15.40
2019-05-28T02:38:25.528Z,15.50
2019-05-28T02:40:55.744Z,15.40
2019-05-28T02:43:25.767Z,15.40
2019-05-28T02:45:55.896Z,15.40
2019-05-28T02:48:26.020Z,15.50
2019-05-28T02:50:58.191Z,15.50
2019-05-28T02:53:29.766Z,15.60
2019-05-28T02:56:00.345Z,15.60
2019-05-28T02:58:33.113Z,15.60
2019-05-28T03:01:06.127Z,15.60
2019-05-28T03:03:36.239Z,15.60
2019-05-28T03:06:07.181Z,15.60
2019-05-28T03:08:37.173Z,15.60
2019-05-28T03:11:07.445Z,15.50
2019-05-28T03:13:37.863Z,15.40
2019-05-28T03:16:09.623Z,15.40
2019-05-28T03:18:41.194Z,15.40
2019-05-28T03:21:12.413Z,15.50
2019-05-28T03:23:43.704Z,15.40
2019-05-28T03:26:13.764Z,15.30
2019-05-28T03:28:43.959Z,15.40
2019-05-28T03:31:14.123Z,15.40
2019-05-28T03:33:44.283Z,15.40
2019-05-28T03:36:16.475Z,15.40
2019-05-28T03:38:46.989Z,15.50
2019-05-28T03:41:17.130Z,15.40
2019-05-28T03:43:47.123Z,15.50
2019-05-28T03:46:17.243Z,15.40
2019-05-28T03:48:47.256Z,15.50
2019-05-28T03:51:17.193Z,15.40
2019-05-28T03:53:47.309Z,15.40
2019-05-28T03:56:17.259Z,15.50
2019-05-28T03:58:47.283Z,15.40
2019-05-28T04:01:17.666Z,15.50
2019-05-28T04:03:47.690Z,15.50
2019-05-28T04:06:17.672Z,15.50
2019-05-28T04:08:47.630Z,15.60
2019-05-28T04:11:17.611Z,15.70
2019-05-28T04:13:47.611Z,15.70
2019-05-28T04:16:17.634Z,15.70
2019-05-28T04:18:47.626Z,15.70
2019-05-28T04:21:17.873Z,15.70
2019-05-28T04:23:47.809Z,15.70
2019-05-28T04:26:17.759Z,15.70
2019-05-28T04:28:47.619Z,15.70
2019-05-28T04:31:17.683Z,15.80
2019-05-28T04:33:47.685Z,15.80
2019-05-28T04:36:17.650Z,15.80
2019-05-28T04:38:47.764Z,15.90
2019-05-28T04:41:19.017Z,15.90
2019-05-28T04:43:49.051Z,16.00
2019-05-28T04:46:19.154Z,16.00
2019-05-28T04:48:49.272Z,16.00
2019-05-28T04:51:19.280Z,16.10
2019-05-28T04:53:49.442Z,16.10
2019-05-28T04:56:19.495Z,16.20
2019-05-28T04:58:49.443Z,16.30
2019-05-28T05:01:19.440Z,16.30
2019-05-28T05:03:49.562Z,16.20
2019-05-28T05:06:19.588Z,16.30
2019-05-28T05:08:49.600Z,16.30
2019-05-28T05:11:19.593Z,16.40
2019-05-28T05:13:49.573Z,16.40
2019-05-28T05:16:19.625Z,16.50
2019-05-28T05:18:49.707Z,16.50
2019-05-28T05:21:19.747Z,16.50
2019-05-28T05:23:49.711Z,16.60
2019-05-28T05:26:19.844Z,16.60
2019-05-28T05:28:49.910Z,16.80
2019-05-28T05:31:19.954Z,16.90
2019-05-28T05:33:50.079Z,17.00
2019-05-28T05:36:20.165Z,17.20
2019-05-28T05:38:50.205Z,17.30
2019-05-28T05:41:20.195Z,17.40
2019-05-28T05:43:50.231Z,17.50
2019-05-28T05:46:20.193Z,17.50
2019-05-28T05:48:50.281Z,17.50
2019-05-28T05:51:20.230Z,17.50
2019-05-28T05:53:50.308Z,17.60
2019-05-28T05:56:20.390Z,17.60
2019-05-28T05:58:50.429Z,17.70
2019-05-28T06:01:20.430Z,17.60
2019-05-28T06:03:50.553Z,17.70
2019-05-28T06:06:20.724Z,17.70
2019-05-28T06:08:50.821Z,17.70
2019-05-28T06:11:20.869Z,17.80
2019-05-28T06:13:50.956Z,17.80
2019-05-28T06:16:20.984Z,18.00
2019-05-28T06:18:51.091Z,18.10
2019-05-28T06:21:21.102Z,18.20
2019-05-28T06:23:51.386Z,18.20
2019-05-28T06:26:21.539Z,18.30
2019-05-28T06:28:51.588Z,18.30
2019-05-28T06:31:21.728Z,18.50
2019-05-28T06:33:56.919Z,18.60
2019-05-28T06:36:23.517Z,18.70
2019-05-28T06:38:53.511Z,18.80
2019-05-28T06:41:23.628Z,18.90
2019-05-28T06:43:53.558Z,19.00
2019-05-28T06:46:23.600Z,19.20
2019-05-28T06:48:53.659Z,19.10
2019-05-28T06:51:23.751Z,19.30
2019-05-28T06:53:53.757Z,19.40
2019-05-28T06:56:23.901Z,19.50
2019-05-28T06:58:54.026Z,19.60
2019-05-28T07:01:24.119Z,19.70
2019-05-28T07:03:54.184Z,19.60
2019-05-28T07:06:24.184Z,19.70
2019-05-28T07:08:54.196Z,19.70
2019-05-28T07:11:24.316Z,19.70
2019-05-28T07:13:54.225Z,19.70
2019-05-28T07:16:24.301Z,19.80
2019-05-28T07:18:54.324Z,19.90
2019-05-28T07:21:25.477Z,20.00
2019-05-28T07:23:55.468Z,20.00
2019-05-28T07:26:25.504Z,20.10
2019-05-28T07:28:55.509Z,20.10
2019-05-28T07:31:25.536Z,20.20
2019-05-28T07:33:55.618Z,20.20
2019-05-28T07:36:25.595Z,20.40
2019-05-28T07:38:55.611Z,20.60
2019-05-28T07:41:25.532Z,20.90
2019-05-28T07:43:55.615Z,21.30
2019-05-28T07:46:25.649Z,22.10
2019-05-28T07:48:55.718Z,23.10
2019-05-28T07:51:25.734Z,24.00
2019-05-28T07:53:55.814Z,24.30
2019-05-28T07:56:25.926Z,25.10
2019-05-28T07:58:55.926Z,25.80
2019-05-28T08:01:25.859Z,26.60
2019-05-28T08:03:55.958Z,27.00
2019-05-28T08:06:25.967Z,27.50
2019-05-28T08:08:56.175Z,28.00
2019-05-28T08:11:26.310Z,28.50
2019-05-28T08:13:56.335Z,28.80
2019-05-28T08:16:26.884Z,29.20
2019-05-28T08:18:56.861Z,29.10
2019-05-28T08:21:27.029Z,28.50
2019-05-28T08:23:57.248Z,28.10
2019-05-28T08:26:27.323Z,28.30
2019-05-28T08:28:59.519Z,28.50
2019-05-28T08:31:29.042Z,28.30
2019-05-28T08:33:59.093Z,27.30
2019-05-28T08:36:29.219Z,26.90
2019-05-28T08:38:59.286Z,26.40
2019-05-28T08:41:29.259Z,26.20
2019-05-28T08:43:59.209Z,25.90
2019-05-28T08:46:29.100Z,26.10
2019-05-28T08:48:59.254Z,25.70
2019-05-28T08:51:29.337Z,25.70
2019-05-28T08:53:59.308Z,25.60
2019-05-28T08:56:29.305Z,25.40
2019-05-28T08:59:00.323Z,25.20
2019-05-28T09:01:30.590Z,25.10
2019-05-28T09:04:00.617Z,25.20
2019-05-28T09:06:30.755Z,25.40
2019-05-28T09:09:00.782Z,25.20
2019-05-28T09:11:32.426Z,25.20
2019-05-28T09:14:02.509Z,25.30
2019-05-28T09:16:32.493Z,25.30
2019-05-28T09:19:02.800Z,25.10
2019-05-28T09:21:32.911Z,24.90
2019-05-28T09:24:02.984Z,24.90
2019-05-28T09:26:33.185Z,25.10
2019-05-28T09:29:03.107Z,25.30
2019-05-28T09:31:33.117Z,25.30
2019-05-28T09:34:04.426Z,24.80
2019-05-28T09:36:34.452Z,24.60
2019-05-28T09:39:06.988Z,24.70
2019-05-28T09:41:37.002Z,24.50
2019-05-28T09:44:07.062Z,24.50
2019-05-28T09:46:37.276Z,24.60
2019-05-28T09:49:07.381Z,25.10
2019-05-28T09:51:37.543Z,25.30
2019-05-28T09:54:07.665Z,25.40
2019-05-28T09:56:37.844Z,26.00
2019-05-28T09:59:07.970Z,26.40
2019-05-28T10:01:38.307Z,26.50
2019-05-28T10:04:08.356Z,26.50
2019-05-28T10:06:41.520Z,26.60
2019-05-28T10:09:10.169Z,26.90
2019-05-28T10:11:40.172Z,27.10
2019-05-28T10:14:10.164Z,27.10
2019-05-28T10:16:40.201Z,27.40
2019-05-28T10:19:10.227Z,27.80
2019-05-28T10:21:40.200Z,28.30
2019-05-28T10:24:10.155Z,28.40
2019-05-28T10:26:40.200Z,28.80
2019-05-28T10:29:10.239Z,29.30
2019-05-28T10:31:40.162Z,29.40
2019-05-28T10:34:10.089Z,29.40
2019-05-28T10:36:40.052Z,29.60
2019-05-28T10:39:10.131Z,29.70
2019-05-28T10:41:40.027Z,29.60
2019-05-28T10:44:10.187Z,29.50
2019-05-28T10:46:40.290Z,29.70
2019-05-28T10:49:10.290Z,29.30
2019-05-28T10:51:40.267Z,29.10
2019-05-28T10:54:10.400Z,28.70
2019-05-28T10:56:41.404Z,28.80
2019-05-28T10:59:12.607Z,28.50
2019-05-28T11:01:42.518Z,28.00
2019-05-28T11:04:12.570Z,27.70
2019-05-28T11:06:51.410Z,27.50
2019-05-28T11:09:14.608Z,27.30
2019-05-28T11:11:44.650Z,27.10
2019-05-28T11:14:14.640Z,27.00
2019-05-28T11:16:44.650Z,26.70
2019-05-28T11:19:14.668Z,26.60
2019-05-28T11:21:44.626Z,26.30
2019-05-28T11:24:14.676Z,26.10
2019-05-28T11:26:44.720Z,25.90
2019-05-28T11:29:14.644Z,25.70
2019-05-28T11:31:44.888Z,25.50
2019-05-28T11:34:14.844Z,25.60
2019-05-28T11:36:44.803Z,25.50
2019-05-28T11:39:15.024Z,25.70
2019-05-28T11:41:45.152Z,26.00
2019-05-28T11:44:15.148Z,26.30
2019-05-28T11:46:45.361Z,26.40
2019-05-28T11:49:15.317Z,26.40
2019-05-28T11:51:46.289Z,26.50
2019-05-28T11:54:16.382Z,25.90
2019-05-28T11:56:46.524Z,26.00
2019-05-28T11:59:16.672Z,26.00
2019-05-28T12:01:46.865Z,25.80
2019-05-28T12:04:16.944Z,25.80
2019-05-28T12:06:46.988Z,26.00
2019-05-28T12:09:16.994Z,25.90
2019-05-28T12:11:46.948Z,25.90
2019-05-28T12:14:17.078Z,26.00
2019-05-28T12:16:47.127Z,25.90
2019-05-28T12:19:17.103Z,25.60
2019-05-28T12:21:47.134Z,25.50
2019-05-28T12:24:17.223Z,25.20
2019-05-28T12:26:47.342Z,25.10
2019-05-28T12:29:17.230Z,25.10
2019-05-28T12:31:47.265Z,25.30
2019-05-28T12:34:17.309Z,25.50
2019-05-28T12:36:47.420Z,25.10
2019-05-28T12:39:17.381Z,25.30
2019-05-28T12:42:00.999Z,25.30
2019-05-28T12:44:19.187Z,25.00
2019-05-28T12:46:49.272Z,25.10
2019-05-28T12:49:19.284Z,25.20
2019-05-28T12:51:49.397Z,25.30
2019-05-28T12:54:19.428Z,25.30
2019-05-28T12:56:49.457Z,25.20
2019-05-28T12:59:19.443Z,25.00
2019-05-28T13:01:49.385Z,25.20
2019-05-28T13:04:19.739Z,25.20
2019-05-28T13:06:49.813Z,25.20
2019-05-28T13:09:19.798Z,25.20
2019-05-28T13:11:49.790Z,25.40
2019-05-28T13:14:19.847Z,25.40
2019-05-28T13:16:49.867Z,25.60
2019-05-28T13:19:19.974Z,25.80
2019-05-28T13:21:50.020Z,25.50
2019-05-28T13:24:20.096Z,25.60
2019-05-28T13:26:50.056Z,25.60
2019-05-28T13:29:20.033Z,25.70
2019-05-28T13:31:50.059Z,25.80
2019-05-28T13:34:20.091Z,25.60
2019-05-28T13:36:51.636Z,25.80
2019-05-28T13:39:21.708Z,26.00
2019-05-28T13:41:51.790Z,26.10
2019-05-28T13:44:21.852Z,26.00
2019-05-28T13:46:51.908Z,26.00
2019-05-28T13:49:21.930Z,26.10
2019-05-28T13:51:52.962Z,26.20
2019-05-28T13:54:23.231Z,26.20
2019-05-28T13:56:53.221Z,26.10
2019-05-28T13:59:23.206Z,26.20
2019-05-28T14:01:53.308Z,26.10
2019-05-28T14:04:23.345Z,25.90
2019-05-28T14:06:53.564Z,25.80
2019-05-28T14:09:23.602Z,25.70
2019-05-28T14:11:53.556Z,25.30
2019-05-28T14:14:23.612Z,25.10
2019-05-28T14:16:53.623Z,24.90
2019-05-28T14:19:23.634Z,24.90
2019-05-28T14:21:53.547Z,25.00
2019-05-28T14:24:23.678Z,25.10
2019-05-28T14:26:53.782Z,25.10
2019-05-28T14:29:23.922Z,25.20
2019-05-28T14:31:53.822Z,25.00
2019-05-28T14:34:23.884Z,25.20
2019-05-28T14:36:54.314Z,25.30
2019-05-28T14:39:40.069Z,25.40
2019-05-28T14:41:56.022Z,25.20
2019-05-28T14:44:26.096Z,25.20
2019-05-28T14:46:56.147Z,25.30
2019-05-28T14:49:26.212Z,25.30
2019-05-28T14:51:56.447Z,25.30
2019-05-28T14:54:26.440Z,25.40
2019-05-28T14:56:56.510Z,25.40
2019-05-28T14:59:26.646Z,25.60
2019-05-28T15:01:56.654Z,25.70
2019-05-28T15:04:26.693Z,25.80
2019-05-28T15:06:57.416Z,25.70
2019-05-28T15:09:27.701Z,25.60
2019-05-28T15:11:57.811Z,25.60
2019-05-28T15:14:27.879Z,25.60
2019-05-28T15:16:57.959Z,25.50
2019-05-28T15:19:28.020Z,25.30
2019-05-28T15:21:58.118Z,25.30
2019-05-28T15:24:28.067Z,25.20
2019-05-28T15:26:58.142Z,25.10
2019-05-28T15:29:28.149Z,25.00
2019-05-28T15:31:58.155Z,24.90
2019-05-28T15:34:28.113Z,24.80
2019-05-28T15:36:58.304Z,24.70
2019-05-28T15:39:39.303Z,24.60
2019-05-28T15:42:00.126Z,24.40
2019-05-28T15:44:30.108Z,24.40
2019-05-28T15:47:00.087Z,24.40
2019-05-28T15:49:30.273Z,24.40
2019-05-28T15:52:07.671Z,24.40
2019-05-28T15:54:32.225Z,24.30
2019-05-28T15:57:02.205Z,24.10
2019-05-28T15:59:32.314Z,24.00
2019-05-28T16:02:02.399Z,23.80
2019-05-28T16:04:32.400Z,23.70
2019-05-28T16:07:02.599Z,23.50
2019-05-28T16:09:32.621Z,23.50
2019-05-28T16:12:02.799Z,23.30
2019-05-28T16:14:32.793Z,23.20
2019-05-28T16:17:03.064Z,23.10
2019-05-28T16:19:33.015Z,23.10
2019-05-28T16:22:03.141Z,23.10
2019-05-28T16:24:33.112Z,23.00
2019-05-28T16:27:03.205Z,23.00
2019-05-28T16:29:34.386Z,22.90
2019-05-28T16:32:04.609Z,22.80
2019-05-28T16:34:34.643Z,22.70
2019-05-28T16:37:04.668Z,22.50
2019-05-28T16:39:34.784Z,21.90
2019-05-28T16:42:04.903Z,21.40
2019-05-28T16:44:36.405Z,20.80
2019-05-28T16:47:17.185Z,20.20
2019-05-28T16:49:38.225Z,19.90
2019-05-28T16:52:08.364Z,19.80
2019-05-28T16:54:39.485Z,19.80
2019-05-28T16:57:09.640Z,19.70
2019-05-28T16:59:39.756Z,19.80
2019-05-28T17:02:09.819Z,19.80
2019-05-28T17:04:39.884Z,19.80
2019-05-28T17:07:09.838Z,19.60
2019-05-28T17:09:41.020Z,19.40
2019-05-28T17:12:11.009Z,19.30
2019-05-28T17:14:41.074Z,19.20
2019-05-28T17:17:11.315Z,19.10
2019-05-28T17:19:44.649Z,19.10
2019-05-28T17:22:13.028Z,18.90
2019-05-28T17:24:43.252Z,18.70
2019-05-28T17:27:13.370Z,18.60
2019-05-28T17:29:43.695Z,18.60
2019-05-28T17:32:14.487Z,18.60
2019-05-28T17:34:44.598Z,18.70
2019-05-28T17:37:14.713Z,18.80
2019-05-28T17:39:44.805Z,18.80
2019-05-28T17:42:14.840Z,18.80
2019-05-28T17:44:47.272Z,18.80
2019-05-28T17:47:16.424Z,18.80
2019-05-28T17:49:46.506Z,18.70
2019-05-28T17:52:16.565Z,18.60
2019-05-28T17:54:46.674Z,18.50
2019-05-28T17:57:16.720Z,18.40
2019-05-28T17:59:46.829Z,18.20
2019-05-28T18:02:16.892Z,18.10
2019-05-28T18:04:46.936Z,18.00
2019-05-28T18:07:16.899Z,17.80
2019-05-28T18:09:46.876Z,17.90
2019-05-28T18:12:16.877Z,17.70
2019-05-28T18:14:46.829Z,17.70
2019-05-28T18:17:16.750Z,17.60
2019-05-28T18:19:46.871Z,17.60
2019-05-28T18:22:17.081Z,17.50
2019-05-28T18:24:47.261Z,17.50
2019-05-28T18:27:17.231Z,17.40
2019-05-28T18:29:47.413Z,17.30
2019-05-28T18:32:17.344Z,17.30
2019-05-28T18:34:47.221Z,17.30
2019-05-28T18:37:17.227Z,17.20
2019-05-28T18:39:47.390Z,17.10
2019-05-28T18:42:17.642Z,17.10
2019-05-28T18:44:47.660Z,17.00
2019-05-28T18:47:17.841Z,17.00
2019-05-28T18:49:47.772Z,16.90
2019-05-28T18:52:17.759Z,16.80
2019-05-28T18:54:47.781Z,16.70
2019-05-28T18:57:18.341Z,16.70
2019-05-28T18:59:49.610Z,16.60
2019-05-28T19:02:19.598Z,16.60
2019-05-28T19:04:49.814Z,16.50
2019-05-28T19:07:19.935Z,16.50
2019-05-28T19:09:50.027Z,16.40
2019-05-28T19:12:20.075Z,16.30
2019-05-28T19:14:50.240Z,16.30
2019-05-28T19:17:20.263Z,16.30
2019-05-28T19:19:50.325Z,16.30
2019-05-28T19:22:20.285Z,16.40
2019-05-28T19:24:50.389Z,16.50
2019-05-28T19:27:20.471Z,16.60
2019-05-28T19:29:50.835Z,16.60
2019-05-28T19:32:20.854Z,16.50
2019-05-28T19:34:50.988Z,16.50
2019-05-28T19:37:21.313Z,16.40
2019-05-28T19:39:51.955Z,16.50
2019-05-28T19:42:21.994Z,16.50
2019-05-28T19:44:52.302Z,16.50
2019-05-28T19:47:22.830Z,16.60
2019-05-28T19:49:52.833Z,16.80
2019-05-28T19:52:22.937Z,16.90
2019-05-28T19:54:53.008Z,16.90
2019-05-28T19:57:23.081Z,16.80
2019-05-28T19:59:54.218Z,16.80
2019-05-28T20:02:24.379Z,16.70
2019-05-28T20:04:54.385Z,16.70
2019-05-28T20:07:24.517Z,16.60
2019-05-28T20:09:54.694Z,16.60
2019-05-28T20:12:24.724Z,16.50
2019-05-28T20:14:54.830Z,16.40
2019-05-28T20:17:24.871Z,16.40
2019-05-28T20:19:57.382Z,16.30
2019-05-28T20:22:26.682Z,16.30
2019-05-28T20:24:56.614Z,16.40
2019-05-28T20:27:26.633Z,16.40
2019-05-28T20:29:56.534Z,16.40
2019-05-28T20:32:26.583Z,16.50
2019-05-28T20:34:56.517Z,16.40
2019-05-28T20:37:26.559Z,16.40
2019-05-28T20:39:56.542Z,16.30
2019-05-28T20:42:27.690Z,16.30
2019-05-28T20:44:58.323Z,16.40
2019-05-28T20:47:28.454Z,16.40
2019-05-28T20:49:58.409Z,16.30
2019-05-28T20:52:28.463Z,16.20
2019-05-28T20:54:59.174Z,16.10
2019-05-28T20:57:29.312Z,16.00
2019-05-28T20:59:59.248Z,16.00
2019-05-28T21:02:29.366Z,16.00
2019-05-28T21:04:59.519Z,15.90
2019-05-28T21:07:29.530Z,15.90
2019-05-28T21:09:59.370Z,15.90
2019-05-28T21:12:42.629Z,15.80
2019-05-28T21:15:01.150Z,15.80
2019-05-28T21:17:31.812Z,15.80
2019-05-28T21:20:01.853Z,15.80
2019-05-28T21:22:32.948Z,15.80
2019-05-28T21:25:03.244Z,15.80
2019-05-28T21:27:33.151Z,15.70
2019-05-28T21:30:03.998Z,15.70
2019-05-28T21:32:34.070Z,15.70
2019-05-28T21:35:07.753Z,15.70
2019-05-28T21:37:37.884Z,15.70
2019-05-28T21:40:08.226Z,15.70
2019-05-28T21:42:38.334Z,15.70
2019-05-28T21:45:09.026Z,15.80
2019-05-28T21:47:39.058Z,15.80
2019-05-28T21:50:09.677Z,15.90
2019-05-28T21:52:39.742Z,16.00
2019-05-28T21:55:10.523Z,15.90
2019-05-28T21:57:40.517Z,16.00
2019-05-28T22:00:22.987Z,16.00
2019-05-28T22:02:54.697Z,16.10
2019-05-28T22:05:24.704Z,16.10
2019-05-28T22:07:55.301Z,16.10
2019-05-28T22:10:25.592Z,16.10
2019-05-28T22:12:55.701Z,16.20
2019-05-28T22:15:25.801Z,16.10
2019-05-28T22:17:56.086Z,16.20
2019-05-28T22:20:26.181Z,16.20
2019-05-28T22:22:56.322Z,16.10
2019-05-28T22:25:26.359Z,16.10
2019-05-28T22:27:56.594Z,16.00
2019-05-28T22:30:26.970Z,16.00
2019-05-28T22:32:57.938Z,16.00
2019-05-28T22:35:28.241Z,16.10
2019-05-28T22:37:59.215Z,16.20
2019-05-28T22:40:29.564Z,16.10
2019-05-28T22:43:00.568Z,16.10
2019-05-28T22:45:30.726Z,16.10
2019-05-28T22:48:02.177Z,16.10
2019-05-28T22:50:32.453Z,16.10
2019-05-28T22:53:02.372Z,16.10
2019-05-28T22:55:32.421Z,16.10
2019-05-28T22:58:02.395Z,16.20
2019-05-28T23:00:32.470Z,16.10
2019-05-28T23:03:02.936Z,16.10
2019-05-28T23:05:33.158Z,16.10
2019-05-28T23:08:03.835Z,16.00
2019-05-28T23:10:34.343Z,15.90
2019-05-28T23:13:05.008Z,15.90
2019-05-28T23:15:35.200Z,15.90
2019-05-28T23:18:07.110Z,15.90
2019-05-28T23:20:37.049Z,15.90
2019-05-28T23:23:07.327Z,15.80
2019-05-28T23:25:37.466Z,15.70
2019-05-28T23:28:07.690Z,15.70
2019-05-28T23:30:37.841Z,15.50
2019-05-28T23:33:10.402Z,15.50
2019-05-28T23:35:40.503Z,15.50
2019-05-28T23:38:11.203Z,15.40
2019-05-28T23:40:41.350Z,15.50
2019-05-28T23:43:11.637Z,15.40
2019-05-28T23:45:42.264Z,15.40
2019-05-28T23:48:16.159Z,15.40
2019-05-28T23:50:43.999Z,15.40
2019-05-28T23:53:14.083Z,15.50
2019-05-28T23:55:44.160Z,15.40
2019-05-28T23:58:14.282Z,15.30
